sensor_id;sensor_type;location;lat;lon;timestamp;P1;P2;P0
47711;PMS7003;57457;51.634;5.886;2024-01-16T00:01:47;14.17;15.81;7.2
47711;PMS7003;57457;51.634;5.886;2024-01-16T00:15:06;12.85;14.29;5.35
47711;PMS7003;57457;51.634;5.886;2024-01-16T00:28:26;13.33;13.85;6.11
47711;PMS7003;57457;51.634;5.886;2024-01-16T00:41:45;13.09;14.62;5.68
47711;PMS7003;57457;51.634;5.886;2024-01-16T00:55:05;11.53;13.2;5.57
47711;PMS7003;57457;51.634;5.886;2024-01-16T01:08:25;12.01;13.31;6.11
47711;PMS7003;57457;51.634;5.886;2024-01-16T01:21:44;12.49;12.65;5.57
47711;PMS7003;57457;51.634;5.886;2024-01-16T01:35:04;11.41;12.98;5.02
47711;PMS7003;57457;51.634;5.886;2024-01-16T01:48:24;10.21;10.36;4.91
47711;PMS7003;57457;51.634;5.886;2024-01-16T02:01:43;10.09;12.22;5.35
47711;PMS7003;57457;51.634;5.886;2024-01-16T02:15:03;10.57;12.22;5.57
47711;PMS7003;57457;51.634;5.886;2024-01-16T02:28:23;11.65;12.65;5.9
47711;PMS7003;57457;51.634;5.886;2024-01-16T02:41:42;13.09;14.29;5.9
47711;PMS7003;57457;51.634;5.886;2024-01-16T02:55:02;11.29;12.22;5.68
47711;PMS7003;57457;51.634;5.886;2024-01-16T03:08:22;8.77;10.69;4.37
47711;PMS7003;57457;51.634;5.886;2024-01-16T03:21:41;7.69;7.42;3.17
47711;PMS7003;57457;51.634;5.886;2024-01-16T03:35:01;7.69;7.75;3.17
47711;PMS7003;57457;51.634;5.886;2024-01-16T03:48:20;7.81;6.88;2.95
47711;PMS7003;57457;51.634;5.886;2024-01-16T04:01:40;8.05;6.44;2.84
47711;PMS7003;57457;51.634;5.886;2024-01-16T04:15:00;3.36;5.79;2.73
47711;PMS7003;57457;51.634;5.886;2024-01-16T04:28:19;6.37;5.13;2.62
47711;PMS7003;57457;51.634;5.886;2024-01-16T04:41:39;5.17;7.53;3.39
47711;PMS7003;57457;51.634;5.886;2024-01-16T04:54:59;8.41;9.06;4.04
47711;PMS7003;57457;51.634;5.886;2024-01-16T05:08:18;17.41;14.94;6.66
47711;PMS7003;57457;51.634;5.886;2024-01-16T05:21:38;23.77;20.28;9.38
47711;PMS7003;57457;51.634;5.886;2024-01-16T05:34:57;26.53;21.37;10.69
47711;PMS7003;57457;51.634;5.886;2024-01-16T05:48:17;28.09;23.66;11.78
47711;PMS7003;57457;51.634;5.886;2024-01-16T06:01:37;29.05;22.9;12.0
47711;PMS7003;57457;51.634;5.886;2024-01-16T06:14:56;24.73;22.68;11.78
47711;PMS7003;57457;51.634;5.886;2024-01-16T06:28:16;23.17;21.26;12.22
47711;PMS7003;57457;51.634;5.886;2024-01-16T06:41:36;24.01;21.7;11.89
47711;PMS7003;57457;51.634;5.886;2024-01-16T06:54:55;21.25;19.08;11.02
47711;PMS7003;57457;51.634;5.886;2024-01-16T07:08:15;18.61;18.76;10.8
47711;PMS7003;57457;51.634;5.886;2024-01-16T07:21:34;18.25;17.67;10.15
47711;PMS7003;57457;51.634;5.886;2024-01-16T07:34:54;16.09;16.58;9.71
47711;PMS7003;57457;51.634;5.886;2024-01-16T07:48:13;17.53;14.62;8.62
47711;PMS7003;57457;51.634;5.886;2024-01-16T08:01:33;12.97;13.74;7.53
47711;PMS7003;57457;51.634;5.886;2024-01-16T08:14:53;14.53;14.18;7.64
47711;PMS7003;57457;51.634;5.886;2024-01-16T08:28:12;12.61;13.85;7.64
47711;PMS7003;57457;51.634;5.886;2024-01-16T08:41:32;10.93;12.44;6.88
47711;PMS7003;57457;51.634;5.886;2024-01-16T08:54:51;10.93;11.13;6.55
47711;PMS7003;57457;51.634;5.886;2024-01-16T09:08:11;12.01;12.11;6.33
47711;PMS7003;57457;51.634;5.886;2024-01-16T09:21:31;15.97;12.33;6.44
47711;PMS7003;57457;51.634;5.886;2024-01-16T09:34:50;9.85;11.13;5.9
47711;PMS7003;57457;51.634;5.886;2024-01-16T10:01:29;11.77;10.36;5.57
47711;PMS7003;57457;51.634;5.886;2024-01-16T10:14:49;10.21;11.02;4.91
47711;PMS7003;57457;51.634;5.886;2024-01-16T10:28:09;7.69;9.71;5.24
47711;PMS7003;57457;51.634;5.886;2024-01-16T10:41:28;10.45;10.69;5.13
47711;PMS7003;57457;51.634;5.886;2024-01-16T10:54:48;11.41;9.71;5.02
47711;PMS7003;57457;51.634;5.886;2024-01-16T11:08:07;9.37;10.69;5.57
47711;PMS7003;57457;51.634;5.886;2024-01-16T11:21:27;10.45;11.35;5.57
47711;PMS7003;57457;51.634;5.886;2024-01-16T11:34:47;9.85;11.24;6.11
47711;PMS7003;57457;51.634;5.886;2024-01-16T11:48:06;13.21;12.54;6.77
47711;PMS7003;57457;51.634;5.886;2024-01-16T12:01:26;8.53;10.91;6.11
47711;PMS7003;57457;51.634;5.886;2024-01-16T12:14:45;9.49;11.13;5.9
47711;PMS7003;57457;51.634;5.886;2024-01-16T12:28:05;12.61;10.91;6.11
47711;PMS7003;57457;51.634;5.886;2024-01-16T12:41:25;12.25;11.35;5.9
47711;PMS7003;57457;51.634;5.886;2024-01-16T12:54:44;8.53;10.91;6.11
47711;PMS7003;57457;51.634;5.886;2024-01-16T13:08:04;9.01;11.02;6.44
47711;PMS7003;57457;51.634;5.886;2024-01-16T13:21:24;8.29;10.58;6.0
47711;PMS7003;57457;51.634;5.886;2024-01-16T13:34:43;8.53;10.15;5.46
47711;PMS7003;57457;51.634;5.886;2024-01-16T13:48:03;9.25;9.82;6.11
47711;PMS7003;57457;51.634;5.886;2024-01-16T14:01:22;7.57;9.71;5.24
47711;PMS7003;57457;51.634;5.886;2024-01-16T14:14:42;11.05;9.38;5.24
47711;PMS7003;57457;51.634;5.886;2024-01-16T14:28:02;6.37;8.95;4.91
47711;PMS7003;57457;51.634;5.886;2024-01-16T14:41:21;14.05;10.8;5.46
47711;PMS7003;57457;51.634;5.886;2024-01-16T14:54:41;8.77;10.91;6.0
47711;PMS7003;57457;51.634;5.886;2024-01-16T15:08:01;15.25;12.98;6.99
47711;PMS7003;57457;51.634;5.886;2024-01-16T15:21:20;11.53;9.6;5.9
47711;PMS7003;57457;51.634;5.886;2024-01-16T15:34:40;9.37;10.26;5.68
47711;PMS7003;57457;51.634;5.886;2024-01-16T15:47:59;14.77;13.74;7.2
47711;PMS7003;57457;51.634;5.886;2024-01-16T16:01:19;11.65;13.53;6.88
47711;PMS7003;57457;51.634;5.886;2024-01-16T16:14:39;13.09;12.76;6.99
47711;PMS7003;57457;51.634;5.886;2024-01-16T16:27:58;17.77;12.98;7.09
47711;PMS7003;57457;51.634;5.886;2024-01-16T16:41:18;13.45;13.09;7.64
47711;PMS7003;57457;51.634;5.886;2024-01-16T16:54:37;12.97;14.51;8.08
47711;PMS7003;57457;51.634;5.886;2024-01-16T17:07:57;14.41;15.6;8.84
47711;PMS7003;57457;51.634;5.886;2024-01-16T17:21:17;17.41;17.99;9.17
47711;PMS7003;57457;51.634;5.886;2024-01-16T17:34:36;13.57;14.94;8.51
47711;PMS7003;57457;51.634;5.886;2024-01-16T17:47:56;15.49;16.9;8.73
47711;PMS7003;57457;51.634;5.886;2024-01-16T18:01:16;16.81;18.1;10.04
47711;PMS7003;57457;51.634;5.886;2024-01-16T18:14:35;15.01;16.47;8.51
47711;PMS7003;57457;51.634;5.886;2024-01-16T18:27:55;21.25;17.56;8.51
47711;PMS7003;57457;51.634;5.886;2024-01-16T18:41:15;15.61;17.12;8.62
47711;PMS7003;57457;51.634;5.886;2024-01-16T19:07:54;18.13;19.3;10.36
47711;PMS7003;57457;51.634;5.886;2024-01-16T19:21:13;20.29;20.83;10.69
47711;PMS7003;57457;51.634;5.886;2024-01-16T19:34:33;22.45;20.83;10.69
47711;PMS7003;57457;51.634;5.886;2024-01-16T19:47:53;24.97;20.94;11.02
47711;PMS7003;57457;51.634;5.886;2024-01-16T20:01:12;20.77;20.28;10.69
47711;PMS7003;57457;51.634;5.886;2024-01-16T20:14:32;21.85;21.7;11.89
47711;PMS7003;57457;51.634;5.886;2024-01-16T20:27:51;23.65;22.57;12.0
47711;PMS7003;57457;51.634;5.886;2024-01-16T20:41:11;24.37;22.25;11.45
47711;PMS7003;57457;51.634;5.886;2024-01-16T20:54:31;29.17;24.53;13.31
47711;PMS7003;57457;51.634;5.886;2024-01-16T21:07:50;27.49;24.21;13.42
47711;PMS7003;57457;51.634;5.886;2024-01-16T21:21:10;25.81;23.88;12.65
47711;PMS7003;57457;51.634;5.886;2024-01-16T21:34:02;;;
47711;PMS7003;57457;51.634;5.886;2024-01-16T21:46:24;;;
47711;PMS7003;57457;51.634;5.886;2024-01-16T21:58:47;;;
47711;PMS7003;57457;51.634;5.886;2024-01-16T22:11:09;;;
47711;PMS7003;57457;51.634;5.886;2024-01-16T22:23:31;;;
47711;PMS7003;57457;51.634;5.886;2024-01-16T22:35:53;;;
47711;PMS7003;57457;51.634;5.886;2024-01-16T22:48:16;;;
47711;PMS7003;57457;51.634;5.886;2024-01-16T23:00:38;;;
47711;PMS7003;57457;51.634;5.886;2024-01-16T23:13:00;;;
47711;PMS7003;57457;51.634;5.886;2024-01-16T23:25:22;;;
47711;PMS7003;57457;51.634;5.886;2024-01-16T23:37:44;;;
47711;PMS7003;57457;51.634;5.886;2024-01-16T23:50:06;;;
